sensor_id;sensor_type;location;lat;lon;timestamp;P1;durP1;ratioP1;P2;durP2;ratioP2
5795;SDS011;2924;51.458;7.046;2024-03-02T00:01:06;2.00;;;0.90;;
5795;SDS011;2924;51.458;7.046;2024-03-02T00:03:32;0.87;;;0.80;;
5795;SDS011;2924;51.458;7.046;2024-03-02T00:05:58;1.53;;;1.30;;
5795;SDS011;2924;51.458;7.046;2024-03-02T00:08:24;0.87;;;0.80;;
5795;SDS011;2924;51.458;7.046;2024-03-02T00:10:51;1.57;;;1.10;;
5795;SDS011;2924;51.458;7.046;2024-03-02T00:13:21;1.23;;;0.70;;
5795;SDS011;2924;51.458;7.046;2024-03-02T00:15:54;0.50;;;0.50;;
5795;SDS011;2924;51.458;7.046;2024-03-02T00:18:21;1.07;;;0.70;;
5795;SDS011;2924;51.458;7.046;2024-03-02T00:20:55;1.40;;;1.30;;
5795;SDS011;2924;51.458;7.046;2024-03-02T00:23:22;2.70;;;1.40;;
5795;SDS011;2924;51.458;7.046;2024-03-02T00:25:49;0.70;;;0.70;;
5795;SDS011;2924;51.458;7.046;2024-03-02T00:31:01;0.97;;;0.90;;
5795;SDS011;2924;51.458;7.046;2024-03-02T00:33:37;0.70;;;0.70;;
5795;SDS011;2924;51.458;7.046;2024-03-02T00:36:08;1.00;;;0.70;;
5795;SDS011;2924;51.458;7.046;2024-03-02T00:38:42;1.17;;;0.77;;
5795;SDS011;2924;51.458;7.046;2024-03-02T00:41:19;0.80;;;0.80;;
5795;SDS011;2924;51.458;7.046;2024-03-02T00:46:19;1.70;;;0.90;;
5795;SDS011;2924;51.458;7.046;2024-03-02T00:48:48;0.77;;;0.77;;
5795;SDS011;2924;51.458;7.046;2024-03-02T00:51:17;1.73;;;0.87;;
5795;SDS011;2924;51.458;7.046;2024-03-02T00:53:43;0.63;;;0.63;;
5795;SDS011;2924;51.458;7.046;2024-03-02T00:56:09;1.03;;;0.80;;
5795;SDS011;2924;51.458;7.046;2024-03-02T00:58:37;0.83;;;0.60;;
5795;SDS011;2924;51.458;7.046;2024-03-02T01:01:03;0.70;;;0.70;;
5795;SDS011;2924;51.458;7.046;2024-03-02T01:03:28;1.00;;;0.60;;
5795;SDS011;2924;51.458;7.046;2024-03-02T01:05:56;1.50;;;0.97;;
5795;SDS011;2924;51.458;7.046;2024-03-02T01:08:21;1.53;;;1.00;;
5795;SDS011;2924;51.458;7.046;2024-03-02T01:10:47;1.60;;;0.53;;
5795;SDS011;2924;51.458;7.046;2024-03-02T01:13:12;2.40;;;0.80;;
5795;SDS011;2924;51.458;7.046;2024-03-02T01:15:38;0.60;;;0.60;;
5795;SDS011;2924;51.458;7.046;2024-03-02T01:18:03;0.60;;;0.60;;
5795;SDS011;2924;51.458;7.046;2024-03-02T01:20:29;0.60;;;0.43;;
5795;SDS011;2924;51.458;7.046;2024-03-02T01:22:55;0.93;;;0.93;;
5795;SDS011;2924;51.458;7.046;2024-03-02T01:25:20;1.73;;;0.53;;
5795;SDS011;2924;51.458;7.046;2024-03-02T01:27:46;0.87;;;0.57;;
5795;SDS011;2924;51.458;7.046;2024-03-02T01:30:11;0.77;;;0.47;;
5795;SDS011;2924;51.458;7.046;2024-03-02T01:32:37;0.70;;;0.63;;
5795;SDS011;2924;51.458;7.046;2024-03-02T01:35:04;1.80;;;0.83;;
5795;SDS011;2924;51.458;7.046;2024-03-02T01:37:30;0.73;;;0.60;;
5795;SDS011;2924;51.458;7.046;2024-03-02T01:39:55;0.80;;;0.70;;
5795;SDS011;2924;51.458;7.046;2024-03-02T01:42:21;0.70;;;0.50;;
5795;SDS011;2924;51.458;7.046;2024-03-02T01:44:47;1.30;;;0.93;;
5795;SDS011;2924;51.458;7.046;2024-03-02T01:47:12;0.50;;;0.50;;
5795;SDS011;2924;51.458;7.046;2024-03-02T01:49:38;2.53;;;0.70;;
5795;SDS011;2924;51.458;7.046;2024-03-02T01:52:06;0.73;;;0.50;;
5795;SDS011;2924;51.458;7.046;2024-03-02T01:54:31;0.73;;;0.50;;
5795;SDS011;2924;51.458;7.046;2024-03-02T01:56:57;1.80;;;0.50;;
5795;SDS011;2924;51.458;7.046;2024-03-02T01:59:24;1.53;;;0.60;;
5795;SDS011;2924;51.458;7.046;2024-03-02T02:01:49;0.77;;;0.50;;
5795;SDS011;2924;51.458;7.046;2024-03-02T02:04:15;0.80;;;0.80;;
5795;SDS011;2924;51.458;7.046;2024-03-02T02:06:41;0.60;;;0.60;;
5795;SDS011;2924;51.458;7.046;2024-03-02T02:09:07;0.50;;;0.50;;
5795;SDS011;2924;51.458;7.046;2024-03-02T02:11:33;0.93;;;0.73;;
5795;SDS011;2924;51.458;7.046;2024-03-02T02:13:59;2.20;;;0.63;;
5795;SDS011;2924;51.458;7.046;2024-03-02T02:16:25;0.50;;;0.50;;
5795;SDS011;2924;51.458;7.046;2024-03-02T02:18:50;3.33;;;0.90;;
5795;SDS011;2924;51.458;7.046;2024-03-02T02:21:16;0.60;;;0.60;;
5795;SDS011;2924;51.458;7.046;2024-03-02T02:23:41;0.60;;;0.60;;
5795;SDS011;2924;51.458;7.046;2024-03-02T02:26:11;0.50;;;0.50;;
5795;SDS011;2924;51.458;7.046;2024-03-02T02:28:37;0.57;;;0.57;;
5795;SDS011;2924;51.458;7.046;2024-03-02T02:31:03;0.63;;;0.60;;
5795;SDS011;2924;51.458;7.046;2024-03-02T02:33:28;0.63;;;0.63;;
5795;SDS011;2924;51.458;7.046;2024-03-02T02:35:54;0.60;;;0.60;;
5795;SDS011;2924;51.458;7.046;2024-03-02T02:38:19;0.93;;;0.67;;
5795;SDS011;2924;51.458;7.046;2024-03-02T02:40:45;0.60;;;0.60;;
5795;SDS011;2924;51.458;7.046;2024-03-02T02:43:11;0.97;;;0.60;;
5795;SDS011;2924;51.458;7.046;2024-03-02T02:45:37;0.63;;;0.60;;
5795;SDS011;2924;51.458;7.046;2024-03-02T02:48:03;3.60;;;0.80;;
5795;SDS011;2924;51.458;7.046;2024-03-02T02:50:30;0.77;;;0.77;;
5795;SDS011;2924;51.458;7.046;2024-03-02T02:52:55;0.50;;;0.50;;
5795;SDS011;2924;51.458;7.046;2024-03-02T02:55:21;1.60;;;0.80;;
5795;SDS011;2924;51.458;7.046;2024-03-02T02:57:46;1.63;;;0.90;;
5795;SDS011;2924;51.458;7.046;2024-03-02T03:00:13;0.60;;;0.60;;
5795;SDS011;2924;51.458;7.046;2024-03-02T03:02:43;4.43;;;0.40;;
5795;SDS011;2924;51.458;7.046;2024-03-02T03:05:13;0.60;;;0.53;;
5795;SDS011;2924;51.458;7.046;2024-03-02T03:07:39;1.83;;;0.77;;
5795;SDS011;2924;51.458;7.046;2024-03-02T03:10:06;1.47;;;0.70;;
5795;SDS011;2924;51.458;7.046;2024-03-02T03:12:33;2.90;;;0.60;;
5795;SDS011;2924;51.458;7.046;2024-03-02T03:15:02;0.70;;;0.67;;
5795;SDS011;2924;51.458;7.046;2024-03-02T03:17:29;3.63;;;0.77;;
5795;SDS011;2924;51.458;7.046;2024-03-02T03:19:55;1.23;;;0.60;;
5795;SDS011;2924;51.458;7.046;2024-03-02T03:22:20;1.37;;;0.77;;
5795;SDS011;2924;51.458;7.046;2024-03-02T03:24:46;3.50;;;0.50;;
5795;SDS011;2924;51.458;7.046;2024-03-02T03:27:11;3.70;;;0.77;;
5795;SDS011;2924;51.458;7.046;2024-03-02T03:29:37;1.13;;;0.60;;
5795;SDS011;2924;51.458;7.046;2024-03-02T03:32:03;0.60;;;0.60;;
5795;SDS011;2924;51.458;7.046;2024-03-02T03:34:29;0.60;;;0.50;;
5795;SDS011;2924;51.458;7.046;2024-03-02T03:36:57;0.80;;;0.80;;
5795;SDS011;2924;51.458;7.046;2024-03-02T03:39:23;1.03;;;0.50;;
5795;SDS011;2924;51.458;7.046;2024-03-02T03:41:48;2.30;;;0.57;;
5795;SDS011;2924;51.458;7.046;2024-03-02T03:44:14;0.50;;;0.50;;
5795;SDS011;2924;51.458;7.046;2024-03-02T03:46:40;3.23;;;0.87;;
5795;SDS011;2924;51.458;7.046;2024-03-02T03:49:05;1.20;;;0.93;;
5795;SDS011;2924;51.458;7.046;2024-03-02T03:51:31;3.23;;;0.87;;
5795;SDS011;2924;51.458;7.046;2024-03-02T03:53:56;1.20;;;0.50;;
5795;SDS011;2924;51.458;7.046;2024-03-02T03:56:22;3.73;;;0.80;;
5795;SDS011;2924;51.458;7.046;2024-03-02T03:58:47;0.47;;;0.47;;
5795;SDS011;2924;51.458;7.046;2024-03-02T04:01:13;0.97;;;0.70;;
5795;SDS011;2924;51.458;7.046;2024-03-02T04:03:38;0.90;;;0.80;;
5795;SDS011;2924;51.458;7.046;2024-03-02T04:06:04;1.30;;;0.87;;
5795;SDS011;2924;51.458;7.046;2024-03-02T04:08:29;4.53;;;0.80;;
5795;SDS011;2924;51.458;7.046;2024-03-02T04:10:55;0.90;;;0.70;;
5795;SDS011;2924;51.458;7.046;2024-03-02T04:13:21;0.43;;;0.43;;
5795;SDS011;2924;51.458;7.046;2024-03-02T04:15:46;3.67;;;1.03;;
5795;SDS011;2924;51.458;7.046;2024-03-02T04:18:12;0.80;;;0.80;;
5795;SDS011;2924;51.458;7.046;2024-03-02T04:20:38;0.90;;;0.50;;
5795;SDS011;2924;51.458;7.046;2024-03-02T04:23:03;0.80;;;0.70;;
5795;SDS011;2924;51.458;7.046;2024-03-02T04:25:29;2.00;;;0.70;;
5795;SDS011;2924;51.458;7.046;2024-03-02T04:27:54;0.97;;;0.70;;
5795;SDS011;2924;51.458;7.046;2024-03-02T04:30:20;0.73;;;0.60;;
5795;SDS011;2924;51.458;7.046;2024-03-02T04:32:46;0.57;;;0.50;;
5795;SDS011;2924;51.458;7.046;2024-03-02T04:35:12;1.13;;;0.77;;
5795;SDS011;2924;51.458;7.046;2024-03-02T04:37:38;0.40;;;0.40;;
5795;SDS011;2924;51.458;7.046;2024-03-02T04:40:04;1.00;;;0.70;;
5795;SDS011;2924;51.458;7.046;2024-03-02T04:42:33;1.50;;;0.90;;
5795;SDS011;2924;51.458;7.046;2024-03-02T04:44:59;0.57;;;0.57;;
5795;SDS011;2924;51.458;7.046;2024-03-02T04:47:25;0.70;;;0.70;;
5795;SDS011;2924;51.458;7.046;2024-03-02T04:49:50;0.80;;;0.80;;
5795;SDS011;2924;51.458;7.046;2024-03-02T04:52:16;4.53;;;1.03;;
5795;SDS011;2924;51.458;7.046;2024-03-02T04:54:42;1.27;;;0.57;;
5795;SDS011;2924;51.458;7.046;2024-03-02T04:57:26;0.67;;;0.67;;
5795;SDS011;2924;51.458;7.046;2024-03-02T04:59:52;2.00;;;0.67;;
5795;SDS011;2924;51.458;7.046;2024-03-02T05:02:17;1.03;;;0.73;;
5795;SDS011;2924;51.458;7.046;2024-03-02T05:04:43;0.50;;;0.50;;
5795;SDS011;2924;51.458;7.046;2024-03-02T05:07:09;1.03;;;0.80;;
5795;SDS011;2924;51.458;7.046;2024-03-02T05:09:35;2.37;;;0.70;;
5795;SDS011;2924;51.458;7.046;2024-03-02T05:12:00;0.97;;;0.87;;
5795;SDS011;2924;51.458;7.046;2024-03-02T05:14:48;0.53;;;0.53;;
5795;SDS011;2924;51.458;7.046;2024-03-02T05:17:13;1.40;;;0.83;;
5795;SDS011;2924;51.458;7.046;2024-03-02T05:19:39;0.60;;;0.60;;
5795;SDS011;2924;51.458;7.046;2024-03-02T05:22:04;7.27;;;1.30;;
5795;SDS011;2924;51.458;7.046;2024-03-02T05:24:30;0.80;;;0.67;;
5795;SDS011;2924;51.458;7.046;2024-03-02T05:26:56;2.47;;;1.20;;
5795;SDS011;2924;51.458;7.046;2024-03-02T05:29:21;1.33;;;0.70;;
5795;SDS011;2924;51.458;7.046;2024-03-02T05:31:47;4.87;;;1.10;;
5795;SDS011;2924;51.458;7.046;2024-03-02T05:34:13;1.57;;;0.80;;
5795;SDS011;2924;51.458;7.046;2024-03-02T05:36:39;1.20;;;0.53;;
5795;SDS011;2924;51.458;7.046;2024-03-02T05:39:05;0.90;;;0.57;;
5795;SDS011;2924;51.458;7.046;2024-03-02T05:41:33;0.97;;;0.73;;
5795;SDS011;2924;51.458;7.046;2024-03-02T05:43:59;0.83;;;0.60;;
5795;SDS011;2924;51.458;7.046;2024-03-02T05:46:25;1.27;;;0.80;;
5795;SDS011;2924;51.458;7.046;2024-03-02T05:48:51;0.57;;;0.57;;
5795;SDS011;2924;51.458;7.046;2024-03-02T05:51:17;0.87;;;0.70;;
5795;SDS011;2924;51.458;7.046;2024-03-02T05:53:42;0.80;;;0.73;;
5795;SDS011;2924;51.458;7.046;2024-03-02T05:56:08;1.07;;;0.70;;
5795;SDS011;2924;51.458;7.046;2024-03-02T05:58:33;1.00;;;1.00;;
5795;SDS011;2924;51.458;7.046;2024-03-02T06:01:05;1.47;;;0.97;;
5795;SDS011;2924;51.458;7.046;2024-03-02T06:03:30;1.27;;;0.90;;
5795;SDS011;2924;51.458;7.046;2024-03-02T06:05:56;3.90;;;0.80;;
5795;SDS011;2924;51.458;7.046;2024-03-02T06:08:21;1.30;;;1.07;;
5795;SDS011;2924;51.458;7.046;2024-03-02T06:10:47;1.50;;;0.90;;
5795;SDS011;2924;51.458;7.046;2024-03-02T06:13:13;3.00;;;1.00;;
5795;SDS011;2924;51.458;7.046;2024-03-02T06:15:39;1.13;;;0.97;;
5795;SDS011;2924;51.458;7.046;2024-03-02T06:18:04;1.20;;;1.10;;
5795;SDS011;2924;51.458;7.046;2024-03-02T06:20:31;4.30;;;1.07;;
5795;SDS011;2924;51.458;7.046;2024-03-02T06:22:57;1.17;;;1.10;;
5795;SDS011;2924;51.458;7.046;2024-03-02T06:25:22;0.70;;;0.70;;
5795;SDS011;2924;51.458;7.046;2024-03-02T06:27:48;1.30;;;0.93;;
5795;SDS011;2924;51.458;7.046;2024-03-02T06:30:13;7.20;;;1.30;;
5795;SDS011;2924;51.458;7.046;2024-03-02T06:32:39;2.00;;;1.33;;
5795;SDS011;2924;51.458;7.046;2024-03-02T06:35:05;1.33;;;0.80;;
5795;SDS011;2924;51.458;7.046;2024-03-02T06:37:33;1.97;;;1.00;;
5795;SDS011;2924;51.458;7.046;2024-03-02T06:39:59;1.37;;;1.00;;
5795;SDS011;2924;51.458;7.046;2024-03-02T06:42:24;1.30;;;0.93;;
5795;SDS011;2924;51.458;7.046;2024-03-02T06:44:50;1.63;;;0.67;;
5795;SDS011;2924;51.458;7.046;2024-03-02T06:47:15;0.73;;;0.73;;
5795;SDS011;2924;51.458;7.046;2024-03-02T06:49:42;1.90;;;1.20;;
5795;SDS011;2924;51.458;7.046;2024-03-02T06:52:07;4.67;;;1.57;;
5795;SDS011;2924;51.458;7.046;2024-03-02T06:54:33;1.43;;;1.10;;
5795;SDS011;2924;51.458;7.046;2024-03-02T06:56:59;1.23;;;1.00;;
5795;SDS011;2924;51.458;7.046;2024-03-02T06:59:25;1.70;;;1.40;;
5795;SDS011;2924;51.458;7.046;2024-03-02T07:01:51;1.33;;;1.10;;
5795;SDS011;2924;51.458;7.046;2024-03-02T07:04:16;1.73;;;1.10;;
5795;SDS011;2924;51.458;7.046;2024-03-02T07:06:42;1.00;;;1.00;;
5795;SDS011;2924;51.458;7.046;2024-03-02T07:09:07;1.07;;;0.97;;
5795;SDS011;2924;51.458;7.046;2024-03-02T07:11:36;2.80;;;1.30;;
5795;SDS011;2924;51.458;7.046;2024-03-02T07:14:01;1.40;;;1.20;;
5795;SDS011;2924;51.458;7.046;2024-03-02T07:16:27;2.07;;;1.07;;
5795;SDS011;2924;51.458;7.046;2024-03-02T07:18:54;2.70;;;1.17;;
5795;SDS011;2924;51.458;7.046;2024-03-02T07:21:21;2.00;;;1.43;;
5795;SDS011;2924;51.458;7.046;2024-03-02T07:23:47;7.20;;;1.37;;
5795;SDS011;2924;51.458;7.046;2024-03-02T07:26:13;3.13;;;1.60;;
5795;SDS011;2924;51.458;7.046;2024-03-02T07:28:46;1.90;;;1.70;;
5795;SDS011;2924;51.458;7.046;2024-03-02T07:31:12;2.03;;;1.40;;
5795;SDS011;2924;51.458;7.046;2024-03-02T07:33:38;3.03;;;1.30;;
5795;SDS011;2924;51.458;7.046;2024-03-02T07:36:04;2.00;;;1.77;;
5795;SDS011;2924;51.458;7.046;2024-03-02T07:38:30;4.30;;;1.33;;
5795;SDS011;2924;51.458;7.046;2024-03-02T07:40:56;2.37;;;1.40;;
5795;SDS011;2924;51.458;7.046;2024-03-02T07:43:22;1.63;;;1.40;;
5795;SDS011;2924;51.458;7.046;2024-03-02T07:45:48;3.20;;;1.30;;
5795;SDS011;2924;51.458;7.046;2024-03-02T07:48:14;2.63;;;1.43;;
5795;SDS011;2924;51.458;7.046;2024-03-02T07:50:40;3.30;;;1.63;;
5795;SDS011;2924;51.458;7.046;2024-03-02T07:53:05;2.40;;;1.50;;
5795;SDS011;2924;51.458;7.046;2024-03-02T07:55:32;3.43;;;1.20;;
5795;SDS011;2924;51.458;7.046;2024-03-02T07:57:58;2.47;;;1.30;;
5795;SDS011;2924;51.458;7.046;2024-03-02T08:00:24;1.60;;;1.37;;
5795;SDS011;2924;51.458;7.046;2024-03-02T08:02:50;1.77;;;1.20;;
5795;SDS011;2924;51.458;7.046;2024-03-02T08:05:17;3.30;;;1.37;;
5795;SDS011;2924;51.458;7.046;2024-03-02T08:07:44;4.20;;;1.60;;
5795;SDS011;2924;51.458;7.046;2024-03-02T08:10:10;2.30;;;1.40;;
5795;SDS011;2924;51.458;7.046;2024-03-02T08:12:37;1.50;;;1.40;;
5795;SDS011;2924;51.458;7.046;2024-03-02T08:15:02;2.10;;;1.40;;
5795;SDS011;2924;51.458;7.046;2024-03-02T08:17:29;2.43;;;1.40;;
5795;SDS011;2924;51.458;7.046;2024-03-02T08:19:54;2.43;;;1.50;;
5795;SDS011;2924;51.458;7.046;2024-03-02T08:22:20;1.30;;;1.20;;
5795;SDS011;2924;51.458;7.046;2024-03-02T08:24:46;1.47;;;1.37;;
5795;SDS011;2924;51.458;7.046;2024-03-02T08:27:12;1.13;;;1.00;;
5795;SDS011;2924;51.458;7.046;2024-03-02T08:29:37;1.30;;;1.13;;
5795;SDS011;2924;51.458;7.046;2024-03-02T08:32:03;1.60;;;0.90;;
5795;SDS011;2924;51.458;7.046;2024-03-02T08:34:30;3.57;;;1.33;;
5795;SDS011;2924;51.458;7.046;2024-03-02T08:36:55;1.10;;;1.10;;
5795;SDS011;2924;51.458;7.046;2024-03-02T08:39:21;1.30;;;0.90;;
5795;SDS011;2924;51.458;7.046;2024-03-02T08:41:47;2.87;;;1.30;;
5795;SDS011;2924;51.458;7.046;2024-03-02T08:44:13;1.60;;;1.23;;
5795;SDS011;2924;51.458;7.046;2024-03-02T08:46:39;1.03;;;1.03;;
5795;SDS011;2924;51.458;7.046;2024-03-02T08:49:06;3.90;;;1.30;;
5795;SDS011;2924;51.458;7.046;2024-03-02T08:51:32;2.20;;;1.20;;
5795;SDS011;2924;51.458;7.046;2024-03-02T08:53:57;1.20;;;1.10;;
5795;SDS011;2924;51.458;7.046;2024-03-02T08:56:24;1.50;;;1.30;;
5795;SDS011;2924;51.458;7.046;2024-03-02T08:58:50;3.13;;;1.30;;
5795;SDS011;2924;51.458;7.046;2024-03-02T09:01:16;1.90;;;1.30;;
5795;SDS011;2924;51.458;7.046;2024-03-02T09:03:43;2.40;;;1.10;;
5795;SDS011;2924;51.458;7.046;2024-03-02T09:06:12;1.20;;;1.10;;
5795;SDS011;2924;51.458;7.046;2024-03-02T09:08:38;3.13;;;1.30;;
5795;SDS011;2924;51.458;7.046;2024-03-02T09:11:04;1.90;;;1.00;;
5795;SDS011;2924;51.458;7.046;2024-03-02T09:13:31;1.10;;;1.00;;
5795;SDS011;2924;51.458;7.046;2024-03-02T09:15:58;1.20;;;0.83;;
5795;SDS011;2924;51.458;7.046;2024-03-02T09:18:23;1.67;;;0.80;;
5795;SDS011;2924;51.458;7.046;2024-03-02T09:20:49;2.40;;;1.10;;
5795;SDS011;2924;51.458;7.046;2024-03-02T09:23:15;1.40;;;0.90;;
5795;SDS011;2924;51.458;7.046;2024-03-02T09:25:40;3.40;;;1.13;;
5795;SDS011;2924;51.458;7.046;2024-03-02T09:28:06;1.90;;;0.93;;
5795;SDS011;2924;51.458;7.046;2024-03-02T09:30:32;1.90;;;0.90;;
5795;SDS011;2924;51.458;7.046;2024-03-02T09:32:58;1.33;;;0.83;;
5795;SDS011;2924;51.458;7.046;2024-03-02T09:35:23;5.50;;;0.70;;
5795;SDS011;2924;51.458;7.046;2024-03-02T09:37:49;0.67;;;0.63;;
5795;SDS011;2924;51.458;7.046;2024-03-02T09:40:15;6.23;;;1.00;;
5795;SDS011;2924;51.458;7.046;2024-03-02T09:42:41;3.90;;;1.10;;
5795;SDS011;2924;51.458;7.046;2024-03-02T09:45:08;1.37;;;0.90;;
5795;SDS011;2924;51.458;7.046;2024-03-02T09:47:34;1.53;;;0.93;;
5795;SDS011;2924;51.458;7.046;2024-03-02T09:50:00;3.17;;;1.40;;
5795;SDS011;2924;51.458;7.046;2024-03-02T09:52:26;1.53;;;0.87;;
5795;SDS011;2924;51.458;7.046;2024-03-02T09:54:52;0.60;;;0.60;;
5795;SDS011;2924;51.458;7.046;2024-03-02T09:57:18;3.33;;;1.13;;
5795;SDS011;2924;51.458;7.046;2024-03-02T09:59:43;1.80;;;1.00;;
5795;SDS011;2924;51.458;7.046;2024-03-02T10:02:10;0.80;;;0.70;;
5795;SDS011;2924;51.458;7.046;2024-03-02T10:04:36;3.47;;;0.70;;
5795;SDS011;2924;51.458;7.046;2024-03-02T10:07:15;1.27;;;0.90;;
5795;SDS011;2924;51.458;7.046;2024-03-02T10:09:42;3.13;;;0.73;;
5795;SDS011;2924;51.458;7.046;2024-03-02T10:12:09;1.80;;;1.00;;
5795;SDS011;2924;51.458;7.046;2024-03-02T10:14:39;2.73;;;0.90;;
5795;SDS011;2924;51.458;7.046;2024-03-02T10:17:09;1.50;;;0.80;;
5795;SDS011;2924;51.458;7.046;2024-03-02T10:19:38;1.13;;;1.00;;
5795;SDS011;2924;51.458;7.046;2024-03-02T10:22:05;2.83;;;0.90;;
5795;SDS011;2924;51.458;7.046;2024-03-02T10:24:40;3.33;;;0.50;;
5795;SDS011;2924;51.458;7.046;2024-03-02T10:27:10;3.30;;;1.37;;
5795;SDS011;2924;51.458;7.046;2024-03-02T10:29:40;1.50;;;0.70;;
5795;SDS011;2924;51.458;7.046;2024-03-02T10:32:09;1.90;;;0.70;;
5795;SDS011;2924;51.458;7.046;2024-03-02T10:34:42;0.80;;;0.80;;
5795;SDS011;2924;51.458;7.046;2024-03-02T10:37:10;1.10;;;1.00;;
5795;SDS011;2924;51.458;7.046;2024-03-02T10:39:36;2.67;;;1.23;;
5795;SDS011;2924;51.458;7.046;2024-03-02T10:42:02;2.73;;;0.70;;
5795;SDS011;2924;51.458;7.046;2024-03-02T10:44:29;1.23;;;1.00;;
5795;SDS011;2924;51.458;7.046;2024-03-02T10:46:56;2.97;;;0.90;;
5795;SDS011;2924;51.458;7.046;2024-03-02T10:49:25;2.00;;;0.60;;
5795;SDS011;2924;51.458;7.046;2024-03-02T10:51:52;4.87;;;0.73;;
5795;SDS011;2924;51.458;7.046;2024-03-02T10:54:18;0.93;;;0.70;;
5795;SDS011;2924;51.458;7.046;2024-03-02T10:56:44;2.90;;;1.30;;
5795;SDS011;2924;51.458;7.046;2024-03-02T11:01:56;1.07;;;0.70;;
5795;SDS011;2924;51.458;7.046;2024-03-02T11:04:24;0.87;;;0.60;;
5795;SDS011;2924;51.458;7.046;2024-03-02T11:06:52;0.83;;;0.83;;
5795;SDS011;2924;51.458;7.046;2024-03-02T11:09:22;1.30;;;0.90;;
5795;SDS011;2924;51.458;7.046;2024-03-02T11:14:40;0.80;;;0.80;;
5795;SDS011;2924;51.458;7.046;2024-03-02T11:17:09;4.57;;;1.00;;
5795;SDS011;2924;51.458;7.046;2024-03-02T11:19:36;3.93;;;1.17;;
5795;SDS011;2924;51.458;7.046;2024-03-02T11:22:03;1.17;;;0.80;;
5795;SDS011;2924;51.458;7.046;2024-03-02T11:24:30;1.30;;;1.20;;
5795;SDS011;2924;51.458;7.046;2024-03-02T11:27:00;0.80;;;0.80;;
5795;SDS011;2924;51.458;7.046;2024-03-02T11:32:06;0.63;;;0.63;;
5795;SDS011;2924;51.458;7.046;2024-03-02T11:34:43;4.37;;;1.23;;
5795;SDS011;2924;51.458;7.046;2024-03-02T11:37:14;1.87;;;0.77;;
5795;SDS011;2924;51.458;7.046;2024-03-02T11:39:44;1.47;;;0.80;;
5795;SDS011;2924;51.458;7.046;2024-03-02T11:42:12;1.13;;;0.50;;
5795;SDS011;2924;51.458;7.046;2024-03-02T11:44:45;2.07;;;0.83;;
5795;SDS011;2924;51.458;7.046;2024-03-02T11:47:12;3.33;;;1.10;;
5795;SDS011;2924;51.458;7.046;2024-03-02T11:49:49;2.07;;;0.90;;
5795;SDS011;2924;51.458;7.046;2024-03-02T11:52:16;1.27;;;0.87;;
5795;SDS011;2924;51.458;7.046;2024-03-02T11:54:43;0.70;;;0.70;;
5795;SDS011;2924;51.458;7.046;2024-03-02T11:57:20;4.07;;;1.03;;
5795;SDS011;2924;51.458;7.046;2024-03-02T11:59:47;3.50;;;1.00;;
5795;SDS011;2924;51.458;7.046;2024-03-02T12:02:17;5.40;;;1.00;;
5795;SDS011;2924;51.458;7.046;2024-03-02T12:04:44;1.20;;;0.70;;
5795;SDS011;2924;51.458;7.046;2024-03-02T12:07:12;1.23;;;0.70;;
5795;SDS011;2924;51.458;7.046;2024-03-02T12:09:47;1.07;;;1.00;;
5795;SDS011;2924;51.458;7.046;2024-03-02T12:12:13;5.97;;;0.80;;
5795;SDS011;2924;51.458;7.046;2024-03-02T12:14:51;1.70;;;0.77;;
5795;SDS011;2924;51.458;7.046;2024-03-02T12:17:20;1.77;;;0.73;;
5795;SDS011;2924;51.458;7.046;2024-03-02T12:19:45;1.27;;;0.70;;
5795;SDS011;2924;51.458;7.046;2024-03-02T12:22:11;2.67;;;0.67;;
5795;SDS011;2924;51.458;7.046;2024-03-02T12:24:37;0.60;;;0.60;;
5795;SDS011;2924;51.458;7.046;2024-03-02T12:27:03;0.87;;;0.87;;
5795;SDS011;2924;51.458;7.046;2024-03-02T12:29:30;2.37;;;0.80;;
5795;SDS011;2924;51.458;7.046;2024-03-02T12:31:56;2.13;;;0.80;;
5795;SDS011;2924;51.458;7.046;2024-03-02T12:34:22;0.70;;;0.70;;
5795;SDS011;2924;51.458;7.046;2024-03-02T12:36:48;1.10;;;0.83;;
5795;SDS011;2924;51.458;7.046;2024-03-02T12:39:17;2.47;;;0.97;;
5795;SDS011;2924;51.458;7.046;2024-03-02T12:41:43;1.07;;;0.97;;
5795;SDS011;2924;51.458;7.046;2024-03-02T12:44:10;2.83;;;0.60;;
5795;SDS011;2924;51.458;7.046;2024-03-02T12:46:35;2.77;;;0.60;;
5795;SDS011;2924;51.458;7.046;2024-03-02T12:49:07;0.87;;;0.50;;
5795;SDS011;2924;51.458;7.046;2024-03-02T12:51:40;2.93;;;0.80;;
5795;SDS011;2924;51.458;7.046;2024-03-02T12:54:07;0.63;;;0.63;;
5795;SDS011;2924;51.458;7.046;2024-03-02T12:56:33;3.67;;;1.17;;
5795;SDS011;2924;51.458;7.046;2024-03-02T12:59:00;0.70;;;0.70;;
5795;SDS011;2924;51.458;7.046;2024-03-02T13:01:26;1.17;;;0.80;;
5795;SDS011;2924;51.458;7.046;2024-03-02T13:03:54;1.57;;;0.50;;
5795;SDS011;2924;51.458;7.046;2024-03-02T13:06:21;0.80;;;0.80;;
5795;SDS011;2924;51.458;7.046;2024-03-02T13:08:47;6.03;;;1.27;;
5795;SDS011;2924;51.458;7.046;2024-03-02T13:11:14;0.80;;;0.80;;
5795;SDS011;2924;51.458;7.046;2024-03-02T13:13:41;0.70;;;0.70;;
5795;SDS011;2924;51.458;7.046;2024-03-02T13:16:09;1.23;;;0.60;;
5795;SDS011;2924;51.458;7.046;2024-03-02T13:18:35;5.17;;;1.50;;
5795;SDS011;2924;51.458;7.046;2024-03-02T13:21:02;1.07;;;0.67;;
5795;SDS011;2924;51.458;7.046;2024-03-02T13:23:28;1.13;;;0.40;;
5795;SDS011;2924;51.458;7.046;2024-03-02T13:25:56;1.63;;;0.60;;
5795;SDS011;2924;51.458;7.046;2024-03-02T13:28:23;3.17;;;0.77;;
5795;SDS011;2924;51.458;7.046;2024-03-02T13:30:49;1.00;;;0.70;;
5795;SDS011;2924;51.458;7.046;2024-03-02T13:33:14;2.77;;;0.70;;
5795;SDS011;2924;51.458;7.046;2024-03-02T13:35:40;0.50;;;0.50;;
5795;SDS011;2924;51.458;7.046;2024-03-02T13:38:06;0.40;;;0.40;;
5795;SDS011;2924;51.458;7.046;2024-03-02T13:40:31;1.40;;;0.40;;
5795;SDS011;2924;51.458;7.046;2024-03-02T13:43:00;0.67;;;0.67;;
5795;SDS011;2924;51.458;7.046;2024-03-02T13:45:27;0.47;;;0.40;;
5795;SDS011;2924;51.458;7.046;2024-03-02T13:47:53;0.50;;;0.50;;
5795;SDS011;2924;51.458;7.046;2024-03-02T13:50:18;0.70;;;0.50;;
5795;SDS011;2924;51.458;7.046;2024-03-02T13:52:44;0.40;;;0.40;;
5795;SDS011;2924;51.458;7.046;2024-03-02T13:55:10;0.50;;;0.50;;
5795;SDS011;2924;51.458;7.046;2024-03-02T13:57:36;0.50;;;0.50;;
5795;SDS011;2924;51.458;7.046;2024-03-02T14:00:02;0.83;;;0.50;;
5795;SDS011;2924;51.458;7.046;2024-03-02T14:02:28;1.27;;;0.60;;
5795;SDS011;2924;51.458;7.046;2024-03-02T14:04:54;0.50;;;0.50;;
5795;SDS011;2924;51.458;7.046;2024-03-02T14:07:19;1.20;;;0.57;;
5795;SDS011;2924;51.458;7.046;2024-03-02T14:09:45;0.80;;;0.50;;
5795;SDS011;2924;51.458;7.046;2024-03-02T14:12:11;0.60;;;0.60;;
5795;SDS011;2924;51.458;7.046;2024-03-02T14:14:38;0.60;;;0.60;;
5795;SDS011;2924;51.458;7.046;2024-03-02T14:17:04;0.53;;;0.53;;
5795;SDS011;2924;51.458;7.046;2024-03-02T14:19:31;0.63;;;0.40;;
5795;SDS011;2924;51.458;7.046;2024-03-02T14:21:57;0.43;;;0.40;;
5795;SDS011;2924;51.458;7.046;2024-03-02T14:24:23;0.43;;;0.40;;
5795;SDS011;2924;51.458;7.046;2024-03-02T14:26:50;0.50;;;0.50;;
5795;SDS011;2924;51.458;7.046;2024-03-02T14:29:17;0.40;;;0.40;;
5795;SDS011;2924;51.458;7.046;2024-03-02T14:31:43;0.50;;;0.50;;
5795;SDS011;2924;51.458;7.046;2024-03-02T14:34:09;0.40;;;0.40;;
5795;SDS011;2924;51.458;7.046;2024-03-02T14:36:34;0.60;;;0.60;;
5795;SDS011;2924;51.458;7.046;2024-03-02T14:39:00;0.77;;;0.53;;
5795;SDS011;2924;51.458;7.046;2024-03-02T14:41:26;0.43;;;0.40;;
5795;SDS011;2924;51.458;7.046;2024-03-02T14:43:51;0.50;;;0.50;;
5795;SDS011;2924;51.458;7.046;2024-03-02T14:46:17;0.30;;;0.30;;
5795;SDS011;2924;51.458;7.046;2024-03-02T14:48:43;0.70;;;0.57;;
5795;SDS011;2924;51.458;7.046;2024-03-02T14:51:09;0.40;;;0.40;;
5795;SDS011;2924;51.458;7.046;2024-03-02T14:53:35;2.10;;;0.53;;
5795;SDS011;2924;51.458;7.046;2024-03-02T14:56:03;0.87;;;0.70;;
5795;SDS011;2924;51.458;7.046;2024-03-02T14:58:29;0.40;;;0.40;;
5795;SDS011;2924;51.458;7.046;2024-03-02T15:00:55;0.70;;;0.70;;
5795;SDS011;2924;51.458;7.046;2024-03-02T15:03:20;0.67;;;0.40;;
5795;SDS011;2924;51.458;7.046;2024-03-02T15:05:46;0.50;;;0.50;;
5795;SDS011;2924;51.458;7.046;2024-03-02T15:08:12;0.50;;;0.50;;
5795;SDS011;2924;51.458;7.046;2024-03-02T15:10:38;1.70;;;0.53;;
5795;SDS011;2924;51.458;7.046;2024-03-02T15:13:04;0.50;;;0.50;;
5795;SDS011;2924;51.458;7.046;2024-03-02T15:15:29;0.73;;;0.70;;
5795;SDS011;2924;51.458;7.046;2024-03-02T15:17:55;0.53;;;0.40;;
5795;SDS011;2924;51.458;7.046;2024-03-02T15:20:20;0.90;;;0.50;;
5795;SDS011;2924;51.458;7.046;2024-03-02T15:22:46;2.10;;;0.50;;
5795;SDS011;2924;51.458;7.046;2024-03-02T15:25:12;0.70;;;0.70;;